M I D A S
Marine Information and Data Acquisition System
Tripno 857 of the Zeeleeuw from 2005-03-07 07:35:17 to 2005-03-07 18:04:43
Back to CruiseResearch ActivitiesStationsMapUnderway DataData graphs

EquipmentUnitsComment
TimeDGPSUTC
LatitudeDGPSDM.mWGS84
LongitudeDGPSDM.mWGS84
HeadingGyrodeg 
SOGDGPSknotsSpeed over ground
COGDGPSdegCourse over ground
DepthEcho soundermeters200 kHz
Missing or incorrect values are displayed as -999
Navigation data collected by the RV Zeeleeuw from 2005-03-07 07:28:23 to 2005-03-07 18:04:00
                                                                                    Next 1000 lines
Time Latitude Longitude Heading SOG COG Depth
2005-03-07 07:28:33 51°13.595 2°56.1 117.6 0.3 296 8.5
2005-03-07 07:28:38 51°13.596 2°56.099 117.5 0.8 296 8.4
2005-03-07 07:28:42 51°13.596 2°56.097 117.3 1.2 296 8.4
2005-03-07 07:28:48 51°13.597 2°56.093 117.3 1.5 297 8.4
2005-03-07 07:28:53 51°13.598 2°56.09 117.3 1.7 296 8.3
2005-03-07 07:28:59 51°13.599 2°56.085 117.5 1.9 297 -999
2005-03-07 07:29:04 51°13.601 2°56.081 117.8 2 296 -999
2005-03-07 07:29:09 51°13.602 2°56.076 118.3 2.2 297 -999
2005-03-07 07:29:14 51°13.604 2°56.071 118.7 2.2 297 -999
2005-03-07 07:29:19 51°13.606 2°56.066 119.2 2.2 297 -999
2005-03-07 07:29:24 51°13.608 2°56.06 119.6 2.2 297 -999
2005-03-07 07:29:29 51°13.61 2°56.053 119.7 3.2 297 -999
2005-03-07 07:29:34 51°13.612 2°56.047 119.8 3.3 297 -999
2005-03-07 07:29:39 51°13.614 2°56.039 120 3.5 297 -999
2005-03-07 07:29:44 51°13.616 2°56.033 120.1 3.5 297 -999
2005-03-07 07:29:49 51°13.618 2°56.024 120.1 3.8 297 -999
2005-03-07 07:29:54 51°13.621 2°56.016 120.2 3.8 297 -999
2005-03-07 07:29:59 51°13.623 2°56.008 120.3 3.8 297 -999
2005-03-07 07:30:04 51°13.626 2°55.999 120.3 3.8 297 -999
2005-03-07 07:30:09 51°13.629 2°55.99 120.1 3.8 297 -999
2005-03-07 07:30:14 51°13.632 2°55.98 119.8 3.8 297 -999
2005-03-07 07:30:19 51°13.635 2°55.971 119.7 -999 -999 -999
2005-03-07 07:30:24 51°13.638 2°55.961 119.7 4.9 297 -999
2005-03-07 07:30:29 51°13.641 2°55.95 119.5 5.1 297 -999
2005-03-07 07:30:34 51°13.644 2°55.941 119.3 5.2 296 -999
2005-03-07 07:30:39 51°13.648 2°55.929 119.1 5.2 296 -999
2005-03-07 07:30:44 51°13.651 2°55.918 119 5.2 296 -999
2005-03-07 07:30:49 51°13.654 2°55.908 118.9 5.5 296 -999
2005-03-07 07:30:54 51°13.658 2°55.897 119 5.5 296 -999
2005-03-07 07:30:59 51°13.661 2°55.885 119 5.6 296 -999
2005-03-07 07:31:04 51°13.664 2°55.873 118.6 5.6 296 -999
2005-03-07 07:31:09 51°13.668 2°55.862 118.2 5.6 296 -999
2005-03-07 07:31:14 51°13.671 2°55.852 117.6 5.6 296 -999
2005-03-07 07:31:19 51°13.674 2°55.839 117 5.8 294 -999
2005-03-07 07:31:24 51°13.677 2°55.828 116.1 5.8 294 -999
2005-03-07 07:31:29 51°13.68 2°55.818 115.4 5.8 294 -999
2005-03-07 07:31:34 51°13.682 2°55.809 114.5 5 292 -999
2005-03-07 07:31:39 51°13.684 2°55.799 113.6 5 292 -999
2005-03-07 07:31:44 51°13.686 2°55.79 113 5 292 12
2005-03-07 07:31:48 51°13.688 2°55.782 112.2 4.3 289 5.4
2005-03-07 07:31:54 51°13.69 2°55.773 111.7 4 289 5.1
2005-03-07 07:31:58 51°13.691 2°55.767 111.2 3.5 288 -999
2005-03-07 07:32:04 51°13.692 2°55.76 110.4 3.1 286 -999
2005-03-07 07:32:09 51°13.693 2°55.755 109 2.5 287 -999
2005-03-07 07:32:14 51°13.694 2°55.753 107.1 1.6 287 -999
2005-03-07 07:32:19 51°13.694 2°55.752 104.2 1.3 287 -999
2005-03-07 07:32:24 51°13.695 2°55.752 100.7 0.2 327 4.9
2005-03-07 07:32:29 51°13.695 2°55.753 95 0.4 64 -999
2005-03-07 07:32:34 51°13.695 2°55.756 87.2 0.7 70 -999
2005-03-07 07:32:39 51°13.696 2°55.759 80.5 1.1 72 -999
2005-03-07 07:32:44 51°13.697 2°55.762 74.9 1.7 64 5.1
2005-03-07 07:32:48 51°13.698 2°55.766 68.2 1.7 64 5
2005-03-07 07:32:52 51°13.7 2°55.769 62.9 2.3 53 5.1
2005-03-07 07:32:59 51°13.703 2°55.775 54.5 2.6 44 -999
2005-03-07 07:33:04 51°13.706 2°55.779 46.2 2.6 44 -999
2005-03-07 07:33:09 51°13.709 2°55.781 39.2 2.7 35 -999
2005-03-07 07:33:14 51°13.711 2°55.783 34.8 2.7 35 -999
2005-03-07 07:33:19 51°13.713 2°55.785 31.7 1.4 32 -999
2005-03-07 07:33:24 51°13.713 2°55.785 27.5 0.8 25 -999
2005-03-07 07:33:29 51°13.713 2°55.785 24 0.5 31 -999
2005-03-07 07:33:34 51°13.712 2°55.784 21.9 0.3 180 -999
2005-03-07 07:33:39 51°13.71 2°55.784 21 1 189 -999
2005-03-07 07:33:44 51°13.707 2°55.783 20.4 1.6 193 -999
2005-03-07 07:33:49 51°13.705 2°55.782 20.3 1.7 194 -999
2005-03-07 07:33:54 51°13.703 2°55.781 21.2 1.5 193 -999
2005-03-07 07:33:59 51°13.702 2°55.78 22.2 1.4 194 -999
2005-03-07 07:34:04 51°13.702 2°55.78 21.7 0.5 202 -999
2005-03-07 07:34:09 51°13.703 2°55.78 19.5 0.2 208 -999
2005-03-07 07:34:14 51°13.705 2°55.78 15.1 0.2 208 -999
2005-03-07 07:34:19 51°13.708 2°55.78 8.7 0.2 208 -999
2005-03-07 07:34:24 51°13.712 2°55.779 0.6 2.5 356 -999
2005-03-07 07:34:29 51°13.717 2°55.777 353.4 3.3 347 5.4
2005-03-07 07:34:34 51°13.722 2°55.772 344 3.8 337 -999
2005-03-07 07:34:39 51°13.726 2°55.768 332.5 3.9 329 5.6
2005-03-07 07:34:44 51°13.731 2°55.761 326.9 3.9 329 12.9
2005-03-07 07:34:48 51°13.734 2°55.755 322.2 4.2 320 12.2
2005-03-07 07:34:54 51°13.74 2°55.747 319.5 4.5 318 12.1
2005-03-07 07:34:58 51°13.744 2°55.74 317.5 5.1 314 -999
2005-03-07 07:35:04 51°13.75 2°55.73 316.9 5.1 314 11.3
2005-03-07 07:35:08 51°13.755 2°55.722 317.3 5.5 314 11
2005-03-07 07:35:12 51°13.759 2°55.715 317.7 5.7 315 11
2005-03-07 07:35:17 51°13.765 2°55.705 317.7 5.8 314 11.1
2005-03-07 07:35:23 51°13.772 2°55.693 317.7 6.3 315 11.2
2005-03-07 07:35:28 51°13.779 2°55.683 318.1 6.5 315 11.3
2005-03-07 07:35:32 51°13.785 2°55.675 319.7 6.7 316 12.2
2005-03-07 07:35:37 51°13.793 2°55.665 322.2 6.7 316 11.4
2005-03-07 07:35:44 51°13.803 2°55.652 325.4 6.7 316 11.3
2005-03-07 07:35:49 51°13.812 2°55.643 328.2 6.7 316 11.3
2005-03-07 07:35:53 51°13.821 2°55.635 329.8 7.7 327 11.3
2005-03-07 07:35:58 51°13.829 2°55.626 331.5 7.9 328 11.2
2005-03-07 07:36:03 51°13.84 2°55.617 333.5 8.1 330 11.2
2005-03-07 07:36:08 51°13.851 2°55.609 335.9 8.3 332 -999
2005-03-07 07:36:13 51°13.861 2°55.6 337.1 8.3 333 11.1
2005-03-07 07:36:18 51°13.872 2°55.593 338.2 8.5 336 11.1
2005-03-07 07:36:23 51°13.883 2°55.585 339.5 8.6 336 11.1
2005-03-07 07:36:29 51°13.896 2°55.576 339.9 8.6 336 11
2005-03-07 07:36:32 51°13.903 2°55.571 340.5 8.8 337 11
2005-03-07 07:36:38 51°13.915 2°55.563 341.1 8.8 337 11
2005-03-07 07:36:44 51°13.929 2°55.554 341.6 8.9 338 11.1
2005-03-07 07:36:48 51°13.939 2°55.548 341.9 8.9 338 11
2005-03-07 07:36:54 51°13.952 2°55.539 342.2 8.9 338 11
2005-03-07 07:36:58 51°13.962 2°55.532 341.7 9 337 11
2005-03-07 07:37:04 51°13.975 2°55.524 341.1 9 337 11
2005-03-07 07:37:08 51°13.985 2°55.517 340.7 9 336 11
2005-03-07 07:37:14 51°13.998 2°55.509 341.1 9 337 11
2005-03-07 07:37:19 51°14.009 2°55.501 341.2 9 337 11.4
2005-03-07 07:37:23 51°14.018 2°55.494 341 8.5 336 11
2005-03-07 07:37:29 51°14.03 2°55.486 341.1 8.4 336 10.9
2005-03-07 07:37:33 51°14.039 2°55.48 341.6 8.1 337 11
2005-03-07 07:37:38 51°14.049 2°55.473 341.6 8.1 337 10.9
2005-03-07 07:37:44 51°14.06 2°55.465 340.9 8.1 337 10.9
2005-03-07 07:37:48 51°14.069 2°55.459 340.4 7.8 336 10.9
2005-03-07 07:37:52 51°14.077 2°55.453 340.7 7.8 337 11
2005-03-07 07:37:58 51°14.088 2°55.446 341.4 7.9 338 11
2005-03-07 07:38:04 51°14.1 2°55.438 341.6 7.9 338 11
2005-03-07 07:38:08 51°14.109 2°55.431 341 8.1 337 11.1
2005-03-07 07:38:12 51°14.118 2°55.425 340.3 8.2 335 11.1
2005-03-07 07:38:19 51°14.131 2°55.415 339.7 8.3 335 11.2
2005-03-07 07:38:24 51°14.142 2°55.406 338.9 8.3 335 11.2
2005-03-07 07:38:28 51°14.151 2°55.398 337.3 8.5 333 10.9
2005-03-07 07:38:33 51°14.162 2°55.388 335.5 8.6 332 -999
2005-03-07 07:38:39 51°14.173 2°55.377 333.8 8.8 329 -999
2005-03-07 07:38:44 51°14.184 2°55.366 333 8.9 328 11.8
2005-03-07 07:38:49 51°14.194 2°55.355 331.5 8.9 328 10.9
2005-03-07 07:38:53 51°14.203 2°55.344 329.9 9 325 11.8
2005-03-07 07:38:58 51°14.212 2°55.333 327.8 9.2 323 10.9
2005-03-07 07:39:04 51°14.224 2°55.317 325.8 9.2 321 11.2
2005-03-07 07:39:08 51°14.232 2°55.305 324.6 9.3 320 11
2005-03-07 07:39:13 51°14.242 2°55.29 323.6 9.4 319 11
2005-03-07 07:39:18 51°14.25 2°55.277 321.9 9.4 317 11.1
2005-03-07 07:39:23 51°14.26 2°55.26 319.5 9.4 314 11.1
2005-03-07 07:39:28 51°14.269 2°55.245 317.6 9.4 313 11
2005-03-07 07:39:34 51°14.278 2°55.228 316.6 9.4 312 11.1
2005-03-07 07:39:38 51°14.285 2°55.215 316.2 9.5 312 11.1
2005-03-07 07:39:44 51°14.295 2°55.196 315.5 9.5 310 11.2
2005-03-07 07:39:48 51°14.302 2°55.181 314.9 9.5 310 11.2
2005-03-07 07:39:53 51°14.311 2°55.164 314.1 9.5 309 11.2
2005-03-07 07:39:58 51°14.317 2°55.149 312.8 9.6 307 11
2005-03-07 07:40:04 51°14.327 2°55.129 312 9.4 307 11.1
2005-03-07 07:40:08 51°14.334 2°55.113 311.3 9.5 306 11.1
2005-03-07 07:40:12 51°14.34 2°55.1 310.8 9.6 306 11.1
2005-03-07 07:40:17 51°14.348 2°55.083 310.8 9.6 306 11.1
2005-03-07 07:40:24 51°14.358 2°55.062 311.6 9.5 309 11
2005-03-07 07:40:28 51°14.366 2°55.048 313.5 9.4 310 11
2005-03-07 07:40:32 51°14.374 2°55.036 315.8 9.3 311 11
2005-03-07 07:40:37 51°14.384 2°55.023 318.6 9.3 317 11.2
2005-03-07 07:40:43 51°14.396 2°55.008 321.3 9.4 318 11.2
2005-03-07 07:40:48 51°14.406 2°54.996 324.7 9.3 324 11.3
2005-03-07 07:40:53 51°14.417 2°54.984 327.3 9.4 325 11.2
2005-03-07 07:40:58 51°14.427 2°54.975 329.5 9.3 329 11.2
2005-03-07 07:41:02 51°14.436 2°54.967 331.6 9.5 331 11.3
2005-03-07 07:41:09 51°14.453 2°54.952 332.7 9.4 331 11.2
2005-03-07 07:41:13 51°14.463 2°54.943 333 9.8 331 11.3
2005-03-07 07:41:18 51°14.474 2°54.933 332.6 9.8 331 11.1
2005-03-07 07:41:23 51°14.488 2°54.92 332.4 10 331 11.1
2005-03-07 07:41:28 51°14.5 2°54.908 331.9 10.4 330 11.2
2005-03-07 07:41:32 51°14.511 2°54.898 331.5 10.4 330 11.1
2005-03-07 07:41:38 51°14.525 2°54.884 331 10.9 328 11
2005-03-07 07:41:43 51°14.539 2°54.87 330.4 10.9 328 11.1
2005-03-07 07:41:48 51°14.551 2°54.858 329.9 11.1 328 11.2
2005-03-07 07:41:53 51°14.565 2°54.843 330.8 11.1 328 11
2005-03-07 07:41:58 51°14.577 2°54.831 331.5 11 328 11.3
2005-03-07 07:42:04 51°14.592 2°54.817 331.7 11 328 10.9
2005-03-07 07:42:09 51°14.605 2°54.804 331.6 10.9 329 11
2005-03-07 07:42:13 51°14.617 2°54.793 332.1 11 330 11.3
2005-03-07 07:42:19 51°14.631 2°54.78 333 11 330 10.9
2005-03-07 07:42:24 51°14.645 2°54.768 333.3 11.1 331 10.9
2005-03-07 07:42:28 51°14.658 2°54.758 333.7 11.3 332 11
2005-03-07 07:42:32 51°14.669 2°54.748 334 11.4 332 11.2
2005-03-07 07:42:38 51°14.684 2°54.735 334 11.6 332 11
2005-03-07 07:42:43 51°14.7 2°54.721 333.9 11.6 332 10.9
2005-03-07 07:42:48 51°14.715 2°54.708 333.8 11.9 331 11
2005-03-07 07:42:52 51°14.726 2°54.697 333.5 12 330 11.3
2005-03-07 07:42:58 51°14.742 2°54.683 333.3 12 330 11.3
2005-03-07 07:43:04 51°14.76 2°54.667 333.2 12 330 11
2005-03-07 07:43:08 51°14.774 2°54.655 333.1 12 330 10.9
2005-03-07 07:43:13 51°14.789 2°54.642 333.7 12 330 10.8
2005-03-07 07:43:18 51°14.802 2°54.63 333.9 12 330 11
2005-03-07 07:43:23 51°14.818 2°54.617 333.8 12.5 331 10.8
2005-03-07 07:43:29 51°14.836 2°54.6 333.4 12.6 331 11
2005-03-07 07:43:34 51°14.852 2°54.587 333.4 12.8 331 10.9
2005-03-07 07:43:37 51°14.862 2°54.577 333.7 12.7 330 10.8
2005-03-07 07:43:43 51°14.881 2°54.559 333.4 12.8 330 10.8
2005-03-07 07:43:48 51°14.895 2°54.546 333.1 12.9 330 10.8
2005-03-07 07:43:54 51°14.913 2°54.528 332.9 12.9 330 10.6
2005-03-07 07:43:58 51°14.927 2°54.516 332.9 12.8 330 10.8
2005-03-07 07:44:04 51°14.944 2°54.5 332.8 13 330 10.6
2005-03-07 07:44:08 51°14.958 2°54.486 332.9 13 329 10.4
2005-03-07 07:44:13 51°14.973 2°54.471 332.4 12.9 327 10.3
2005-03-07 07:44:18 51°14.986 2°54.458 332.1 12.8 328 10.2
2005-03-07 07:44:23 51°15.003 2°54.441 332 12.7 328 10.1
2005-03-07 07:44:28 51°15.018 2°54.426 332.8 12.7 328 10
2005-03-07 07:44:33 51°15.033 2°54.411 333 12.9 329 10.1
2005-03-07 07:44:39 51°15.05 2°54.394 333.1 12.9 329 9.9
2005-03-07 07:44:44 51°15.065 2°54.381 333.1 12.9 329 10
2005-03-07 07:44:48 51°15.077 2°54.369 333.4 12.8 329 10
2005-03-07 07:44:53 51°15.094 2°54.354 334 12.8 330 9.9
2005-03-07 07:44:58 51°15.108 2°54.341 334.3 12.8 330 10.1
2005-03-07 07:45:04 51°15.126 2°54.324 334.4 12.7 331 10.1
2005-03-07 07:45:08 51°15.14 2°54.312 334.6 12.8 331 10.2
2005-03-07 07:45:13 51°15.156 2°54.299 334.9 12.8 331 10.2
2005-03-07 07:45:18 51°15.17 2°54.286 334.9 12.7 331 10.4
2005-03-07 07:45:24 51°15.189 2°54.27 334.7 12.7 331 10.5
2005-03-07 07:45:29 51°15.204 2°54.257 334.5 12.8 331 10.6
2005-03-07 07:45:34 51°15.219 2°54.244 334.9 12.8 331 10.4
2005-03-07 07:45:39 51°15.234 2°54.23 334.9 12.8 331 10.4
2005-03-07 07:45:43 51°15.248 2°54.218 334 12.5 331 10.5
2005-03-07 07:45:49 51°15.265 2°54.203 334.2 12.7 331 10.5
2005-03-07 07:45:53 51°15.278 2°54.191 334.1 12.6 330 10.7
2005-03-07 07:45:58 51°15.293 2°54.178 333.7 12.7 330 10.6
2005-03-07 07:46:03 51°15.31 2°54.163 333.1 12.7 330 10.8
2005-03-07 07:46:08 51°15.325 2°54.148 333.2 12.7 330 10.7
2005-03-07 07:46:12 51°15.336 2°54.139 333.2 12.8 330 10.8
2005-03-07 07:46:19 51°15.358 2°54.118 333.2 12.9 330 11
2005-03-07 07:46:23 51°15.371 2°54.105 333.6 12.9 330 11
2005-03-07 07:46:28 51°15.387 2°54.09 333.4 12.9 330 11
2005-03-07 07:46:33 51°15.402 2°54.075 333.2 12.9 328 11.2
2005-03-07 07:46:39 51°15.418 2°54.058 333.1 12.8 328 11.4
2005-03-07 07:46:44 51°15.434 2°54.043 332.7 12.9 328 11.1
2005-03-07 07:46:48 51°15.446 2°54.03 333.1 12.9 328 11.3
2005-03-07 07:46:53 51°15.46 2°54.016 333.3 12.7 328 11.3
2005-03-07 07:46:58 51°15.478 2°53.998 333.5 12.7 327 11.6
2005-03-07 07:47:03 51°15.492 2°53.984 333.1 12.7 328 11.4
2005-03-07 07:47:08 51°15.506 2°53.971 333.2 12.7 329 11.4
2005-03-07 07:47:14 51°15.524 2°53.955 334.1 12.8 330 11.7
2005-03-07 07:47:17 51°15.535 2°53.944 334.5 12.8 330 11.7
2005-03-07 07:47:23 51°15.554 2°53.928 335.3 12.6 332 11.5
2005-03-07 07:47:28 51°15.568 2°53.915 335.4 12.6 332 11.7
2005-03-07 07:47:34 51°15.586 2°53.899 335.3 12.6 332 11.8
2005-03-07 07:47:38 51°15.6 2°53.887 335 12.8 331 11.9
2005-03-07 07:47:43 51°15.614 2°53.874 334.6 12.8 331 12.1
2005-03-07 07:47:48 51°15.628 2°53.861 334.8 12.6 331 11.9
2005-03-07 07:47:52 51°15.642 2°53.849 334.7 12.7 332 12
2005-03-07 07:47:58 51°15.661 2°53.832 335.3 12.7 332 12
2005-03-07 07:48:03 51°15.676 2°53.819 335.2 12.8 332 12.1
2005-03-07 07:48:08 51°15.69 2°53.807 335.3 12.7 331 12.2
2005-03-07 07:48:12 51°15.704 2°53.795 335.3 12.7 331 12.2
2005-03-07 07:48:18 51°15.721 2°53.78 334.9 12.5 331 12.5
2005-03-07 07:48:24 51°15.739 2°53.764 334.5 12.6 331 12.5
2005-03-07 07:48:28 51°15.753 2°53.751 334.5 12.6 331 12.6
2005-03-07 07:48:34 51°15.77 2°53.735 334.5 12.7 331 12.3
2005-03-07 07:48:38 51°15.782 2°53.725 333.8 12.7 331 12.3
2005-03-07 07:48:44 51°15.801 2°53.709 334.2 12.8 332 12.3
2005-03-07 07:48:48 51°15.814 2°53.697 334.5 12.8 332 12.5
2005-03-07 07:48:53 51°15.83 2°53.684 334.6 12.7 333 12.6
2005-03-07 07:48:58 51°15.844 2°53.672 335.1 12.7 332 12.8
2005-03-07 07:49:03 51°15.861 2°53.657 335.1 12.7 332 12.5
2005-03-07 07:49:08 51°15.876 2°53.644 334.6 12.6 331 12.7
2005-03-07 07:49:12 51°15.887 2°53.635 334.1 12.6 331 12.8
2005-03-07 07:49:19 51°15.908 2°53.617 334.6 12.7 332 12.7
2005-03-07 07:49:24 51°15.924 2°53.603 334.4 12.7 332 12.6
2005-03-07 07:49:29 51°15.94 2°53.589 333.8 12.7 332 12.7
2005-03-07 07:49:33 51°15.953 2°53.578 334.2 12.7 331 12.7
2005-03-07 07:49:38 51°15.967 2°53.565 333.9 12.7 331 41.8
2005-03-07 07:49:44 51°15.984 2°53.551 333.8 12.3 332 13
2005-03-07 07:49:48 51°15.997 2°53.539 334.5 12.4 331 12.9
2005-03-07 07:49:53 51°16.012 2°53.526 334.4 12.4 332 13
2005-03-07 07:49:58 51°16.028 2°53.512 334.4 12.4 332 12.9
2005-03-07 07:50:02 51°16.039 2°53.503 334.2 12.7 332 13.1
2005-03-07 07:50:09 51°16.06 2°53.485 334.4 12.7 332 13.1
2005-03-07 07:50:13 51°16.074 2°53.472 334.4 12.5 332 13
2005-03-07 07:50:18 51°16.089 2°53.46 333.9 12.5 332 13.3
2005-03-07 07:50:23 51°16.104 2°53.446 334.3 12.5 331 13
2005-03-07 07:50:29 51°16.122 2°53.432 334.2 12.6 332 13.1
2005-03-07 07:50:34 51°16.137 2°53.419 334.3 12.7 332 13.2
2005-03-07 07:50:38 51°16.151 2°53.407 334.4 12.5 332 13
2005-03-07 07:50:44 51°16.168 2°53.392 334.5 12.7 332 13.2
2005-03-07 07:50:48 51°16.181 2°53.381 334.2 12.7 332 13.4
2005-03-07 07:50:53 51°16.194 2°53.369 334.1 12.7 332 13.2
2005-03-07 07:50:57 51°16.209 2°53.357 334 12.6 332 13.2
2005-03-07 07:51:04 51°16.229 2°53.34 334.3 12.6 332 13.1
2005-03-07 07:51:08 51°16.243 2°53.329 334.6 12.6 332 13.3
2005-03-07 07:51:13 51°16.257 2°53.317 334.5 12.7 333 13.4
2005-03-07 07:51:19 51°16.275 2°53.301 334.8 12.7 332 13.4
2005-03-07 07:51:23 51°16.29 2°53.289 334.5 12.7 332 13.4
2005-03-07 07:51:28 51°16.305 2°53.276 334.1 12.7 332 13.5
2005-03-07 07:51:33 51°16.318 2°53.264 333.9 12.8 332 13.4
2005-03-07 07:51:38 51°16.335 2°53.25 333.8 12.8 332 13.4
2005-03-07 07:51:44 51°16.352 2°53.235 334.1 12.8 332 13.7
2005-03-07 07:51:48 51°16.367 2°53.223 333.9 12.8 332 13.3
2005-03-07 07:51:53 51°16.382 2°53.21 334 12.8 332 13.4
2005-03-07 07:51:58 51°16.398 2°53.196 334.5 12.4 332 13.3
2005-03-07 07:52:02 51°16.41 2°53.186 334.1 12.5 331 13.6
2005-03-07 07:52:08 51°16.428 2°53.17 333.8 12.5 331 13.4
2005-03-07 07:52:13 51°16.443 2°53.157 333.7 12.6 332 13.3
2005-03-07 07:52:18 51°16.459 2°53.143 334.1 12.6 332 13.5
2005-03-07 07:52:23 51°16.474 2°53.13 334.2 12.5 332 13.4
2005-03-07 07:52:28 51°16.489 2°53.117 334.1 12.7 332 13.7
2005-03-07 07:52:34 51°16.506 2°53.103 334 12.7 332 13.4
2005-03-07 07:52:38 51°16.52 2°53.091 334.2 12.4 332 13.6
2005-03-07 07:52:43 51°16.535 2°53.078 334.3 12.6 332 13.7
2005-03-07 07:52:48 51°16.55 2°53.064 334.4 12.6 332 13.7
2005-03-07 07:52:54 51°16.567 2°53.05 334.5 12.7 331 13.6
2005-03-07 07:52:58 51°16.581 2°53.037 334.1 12.7 331 13.3
2005-03-07 07:53:02 51°16.593 2°53.027 334 12.6 331 13.2
2005-03-07 07:53:08 51°16.61 2°53.011 333.8 12.6 331 13.4
2005-03-07 07:53:14 51°16.629 2°52.995 333.5 12.6 330 13.2
2005-03-07 07:53:18 51°16.641 2°52.985 333.7 12.5 331 13.4
2005-03-07 07:53:24 51°16.659 2°52.969 334 12.5 331 13.2
2005-03-07 07:53:28 51°16.672 2°52.956 333.7 12.6 330 13
2005-03-07 07:53:32 51°16.685 2°52.945 334.5 12.6 330 12.7
2005-03-07 07:53:39 51°16.705 2°52.927 333.9 12.6 330 12.4
2005-03-07 07:53:44 51°16.718 2°52.915 334.4 12.6 330 12.5
2005-03-07 07:53:49 51°16.735 2°52.9 333.7 12.6 330 12.5
2005-03-07 07:53:53 51°16.745 2°52.889 333.6 11.9 328 -999
2005-03-07 07:53:59 51°16.759 2°52.875 333.4 11.9 328 44.9
2005-03-07 07:54:04 51°16.775 2°52.861 332.3 11.7 331 -999
2005-03-07 07:54:09 51°16.789 2°52.849 333.2 11.7 331 11.5
2005-03-07 07:54:12 51°16.799 2°52.84 333.8 11.9 331 11
2005-03-07 07:54:19 51°16.819 2°52.824 334.3 11.9 331 11
2005-03-07 07:54:24 51°16.834 2°52.814 335.8 12.2 335 11.4
2005-03-07 07:54:28 51°16.847 2°52.805 337.4 12.2 335 11.2
2005-03-07 07:54:34 51°16.865 2°52.792 338.9 12.2 336 11.4
2005-03-07 07:54:37 51°16.876 2°52.784 339.5 12.2 336 11.1
2005-03-07 07:54:43 51°16.895 2°52.771 339.6 12.3 337 11
2005-03-07 07:54:48 51°16.911 2°52.76 339.7 12.2 337 11.1
2005-03-07 07:54:54 51°16.929 2°52.748 339.9 12.2 337 11
2005-03-07 07:54:58 51°16.943 2°52.739 340.4 12.4 337 11.2
2005-03-07 07:55:03 51°16.959 2°52.728 340.5 12.6 337 11.2
2005-03-07 07:55:08 51°16.974 2°52.717 340.3 12.6 337 11.4
2005-03-07 07:55:13 51°16.991 2°52.706 340.4 12.6 337 11.4
2005-03-07 07:55:18 51°17.006 2°52.696 340.4 12.5 338 11.5
2005-03-07 07:55:24 51°17.025 2°52.683 340.7 12.7 338 11.8
2005-03-07 07:55:28 51°17.039 2°52.674 340.5 12.7 338 11.9
2005-03-07 07:55:34 51°17.058 2°52.662 340.6 12.7 338 11.6
2005-03-07 07:55:38 51°17.072 2°52.652 341.1 12.6 337 11.5
2005-03-07 07:55:43 51°17.088 2°52.642 340.5 12.6 338 11.4
2005-03-07 07:55:49 51°17.105 2°52.631 340.5 12.6 338 11.3
2005-03-07 07:55:52 51°17.116 2°52.624 341.1 12.4 339 11.2
2005-03-07 07:55:59 51°17.138 2°52.61 341.2 12.6 338 11.2
2005-03-07 07:56:03 51°17.152 2°52.601 341.5 12.5 338 11.3
2005-03-07 07:56:08 51°17.168 2°52.59 341.3 12.6 338 11.5
2005-03-07 07:56:13 51°17.181 2°52.581 341.1 12.7 337 11.5
2005-03-07 07:56:17 51°17.196 2°52.57 340.8 12.2 337 11.3
2005-03-07 07:56:24 51°17.218 2°52.556 340.2 12.5 337 11.5
2005-03-07 07:56:28 51°17.232 2°52.547 340.7 12.5 337 11.7
2005-03-07 07:56:33 51°17.248 2°52.537 341 12.5 337 11.5
2005-03-07 07:56:38 51°17.264 2°52.526 341.1 12.5 338 11.7
2005-03-07 07:56:43 51°17.28 2°52.515 341.1 12.8 338 11.7
2005-03-07 07:56:48 51°17.296 2°52.504 341.1 12.6 337 11.9
2005-03-07 07:56:54 51°17.315 2°52.491 341 12.6 337 11.7
2005-03-07 07:56:58 51°17.327 2°52.483 340.8 12.6 336 11.9
2005-03-07 07:57:04 51°17.346 2°52.47 340.4 12.6 336 12.1
2005-03-07 07:57:08 51°17.361 2°52.46 340.8 12.8 337 12
2005-03-07 07:57:12 51°17.374 2°52.451 340.5 12.8 337 12
2005-03-07 07:57:18 51°17.394 2°52.438 340.4 12.8 337 12.2
2005-03-07 07:57:23 51°17.408 2°52.429 340.5 12.7 337 12
2005-03-07 07:57:28 51°17.427 2°52.416 340.8 12.7 337 11.8
2005-03-07 07:57:34 51°17.445 2°52.406 341 12.7 337 12
2005-03-07 07:57:39 51°17.461 2°52.399 342.7 12.5 342 12.1
2005-03-07 07:57:44 51°17.479 2°52.391 345.6 12.5 342 11.9
2005-03-07 07:57:48 51°17.493 2°52.386 346.9 12.5 342 12.2
2005-03-07 07:57:53 51°17.51 2°52.379 348.5 12.5 342 12.2
2005-03-07 07:57:58 51°17.527 2°52.374 349.8 12.7 348 12.1
2005-03-07 07:58:03 51°17.545 2°52.368 350.6 12.7 348 12
2005-03-07 07:58:08 51°17.562 2°52.363 351.2 12.7 348 12.2
2005-03-07 07:58:13 51°17.578 2°52.357 352 12.7 349 12.3
2005-03-07 07:58:18 51°17.593 2°52.352 351.3 12.6 349 11.9
2005-03-07 07:58:24 51°17.615 2°52.345 351.6 12.6 348 11.9
2005-03-07 07:58:29 51°17.632 2°52.339 351.5 12.6 348 12
2005-03-07 07:58:32 51°17.643 2°52.336 351.5 12.8 349 12.1
2005-03-07 07:58:36 51°17.657 2°52.332 352 12.7 349 12
2005-03-07 07:58:44 51°17.683 2°52.323 351.5 12.7 349 12.1
2005-03-07 07:58:49 51°17.701 2°52.317 351.3 12.6 349 12
2005-03-07 07:58:52 51°17.713 2°52.314 351.7 12.6 348 12.2
2005-03-07 07:58:59 51°17.736 2°52.306 351.5 12.7 348 12
2005-03-07 07:59:03 51°17.75 2°52.302 351.2 12.7 349 12.2
2005-03-07 07:59:08 51°17.766 2°52.298 351.7 12.7 350 12.1
2005-03-07 07:59:14 51°17.787 2°52.292 353.1 12.9 351 12.2
2005-03-07 07:59:19 51°17.805 2°52.288 354.5 12.9 351 12
2005-03-07 07:59:23 51°17.821 2°52.285 355.6 12.9 352 12
2005-03-07 07:59:28 51°17.838 2°52.283 357 12.8 356 12.3
2005-03-07 07:59:33 51°17.856 2°52.281 358 12.5 355 12
2005-03-07 07:59:39 51°17.876 2°52.279 358 12.5 355 12
2005-03-07 07:59:43 51°17.891 2°52.277 359.2 12.5 355 12.2
2005-03-07 07:59:48 51°17.907 2°52.275 358.9 12.5 355 12.2
2005-03-07 07:59:54 51°17.928 2°52.273 359.6 12.5 355 12.1
2005-03-07 07:59:59 51°17.947 2°52.271 359.3 12.5 355 12
2005-03-07 08:00:03 51°17.961 2°52.272 359.7 12.5 358 12.3
2005-03-07 08:00:08 51°17.978 2°52.272 1.7 12.5 358 12.3
2005-03-07 08:00:14 51°17.998 2°52.272 2.5 12.5 358 12.1
2005-03-07 08:00:18 51°18.014 2°52.273 3.8 12.5 1 12.1
2005-03-07 08:00:24 51°18.033 2°52.276 4 12.6 1 12.2
2005-03-07 08:00:28 51°18.047 2°52.279 6.4 12.9 6 12.2
2005-03-07 08:00:34 51°18.068 2°52.287 10.3 12.9 6 12.4
2005-03-07 08:00:38 51°18.083 2°52.293 14 12.9 13 12.6
2005-03-07 08:00:43 51°18.101 2°52.304 16.7 13.2 19 12.4
2005-03-07 08:00:48 51°18.117 2°52.314 19.9 13.2 19 12.5
2005-03-07 08:00:52 51°18.131 2°52.322 22.5 13.2 19 12.4
2005-03-07 08:00:58 51°18.149 2°52.334 24 13.2 19 12.6
2005-03-07 08:01:04 51°18.17 2°52.35 25.7 13.2 19 12.5
2005-03-07 08:01:08 51°18.185 2°52.36 26.5 13.2 25 12.5
2005-03-07 08:01:13 51°18.2 2°52.372 26.8 13.2 25 12.6
2005-03-07 08:01:17 51°18.212 2°52.381 27.4 13.1 24 12.5
2005-03-07 08:01:22 51°18.231 2°52.395 27.3 13.2 25 12.7
2005-03-07 08:01:28 51°18.249 2°52.407 27.4 13.2 25 12.7
2005-03-07 08:01:34 51°18.27 2°52.422 26.7 13.2 25 12.7
2005-03-07 08:01:38 51°18.286 2°52.432 26 13.2 25 12.7
2005-03-07 08:01:43 51°18.302 2°52.443 25.9 13.4 23 12.8
2005-03-07 08:01:48 51°18.316 2°52.453 25.3 13.1 22 12.8
2005-03-07 08:01:54 51°18.338 2°52.467 26.1 13.1 22 12.8
2005-03-07 08:01:59 51°18.353 2°52.478 25.2 13.1 22 13
2005-03-07 08:02:03 51°18.367 2°52.488 25 13.1 25 12.8
2005-03-07 08:02:08 51°18.383 2°52.499 26.2 13.1 22 12.8
2005-03-07 08:02:14 51°18.405 2°52.513 25.4 13.3 23 12.8
2005-03-07 08:02:18 51°18.42 2°52.523 25 13.3 23 12.9
2005-03-07 08:02:23 51°18.435 2°52.535 25.6 13 24 13
2005-03-07 08:02:28 51°18.452 2°52.546 25.6 13.1 23 -999
2005-03-07 08:02:32 51°18.463 2°52.554 24.8 13.1 23 12.7
2005-03-07 08:02:38 51°18.482 2°52.567 26.3 12.8 24 12.7
2005-03-07 08:02:44 51°18.504 2°52.582 25.9 12.9 24 12.8
2005-03-07 08:02:48 51°18.516 2°52.591 25.4 13 22 13
2005-03-07 08:02:53 51°18.535 2°52.602 24.7 13 22 13
2005-03-07 08:02:59 51°18.553 2°52.614 24.4 13 22 13.2
2005-03-07 08:03:04 51°18.57 2°52.624 24.4 13 22 13.3
2005-03-07 08:03:09 51°18.588 2°52.635 23.7 13 22 13.2
2005-03-07 08:03:14 51°18.603 2°52.645 23.4 13.2 22 13.4
2005-03-07 08:03:18 51°18.618 2°52.652 24 13.3 20 13.5
2005-03-07 08:03:24 51°18.639 2°52.667 23.8 13.3 20 13.3
2005-03-07 08:03:28 51°18.654 2°52.676 24.1 13 22 13.3
2005-03-07 08:03:33 51°18.669 2°52.686 24.6 13.3 22 13.3
2005-03-07 08:03:38 51°18.687 2°52.697 24.6 12.9 22 13.4
2005-03-07 08:03:41 51°18.698 2°52.704 24.4 12.7 22 13.5
2005-03-07 08:03:49 51°18.723 2°52.72 24.6 12.9 23 13.3
2005-03-07 08:03:54 51°18.739 2°52.731 24.6 13.1 22 13.3
2005-03-07 08:03:58 51°18.753 2°52.741 24.9 13.1 23 13.5
2005-03-07 08:04:03 51°18.77 2°52.752 25 12.9 23 13.5
2005-03-07 08:04:08 51°18.788 2°52.764 25 13.1 23 13.3
2005-03-07 08:04:14 51°18.803 2°52.775 24.8 13.1 23 13.4
2005-03-07 08:04:18 51°18.818 2°52.785 25.4 12.6 23 13.5
2005-03-07 08:04:23 51°18.835 2°52.797 25.1 12.6 23 13.5
2005-03-07 08:04:28 51°18.852 2°52.806 24.5 12.6 23 13.7
2005-03-07 08:04:34 51°18.869 2°52.818 23.6 13 23 13.8
2005-03-07 08:04:39 51°18.888 2°52.829 24.5 12.9 21 13.7
2005-03-07 08:04:44 51°18.903 2°52.839 23.8 12.9 21 13.8
2005-03-07 08:04:48 51°18.918 2°52.849 23.7 12.9 21 13.7
2005-03-07 08:04:53 51°18.935 2°52.86 24.1 13 22 13.7
2005-03-07 08:04:59 51°18.953 2°52.872 25.1 13.1 23 13.8
2005-03-07 08:05:02 51°18.965 2°52.88 24.6 12.9 23 13.9
2005-03-07 08:05:08 51°18.985 2°52.893 25.3 13 24 14
2005-03-07 08:05:13 51°19.001 2°52.905 25.7 13 24 14.1
2005-03-07 08:05:18 51°19.018 2°52.917 25.4 13 24 14
2005-03-07 08:05:24 51°19.036 2°52.93 26.2 13.1 25 14
2005-03-07 08:05:28 51°19.051 2°52.941 26.1 13.1 24 13.9
2005-03-07 08:05:32 51°19.064 2°52.951 26.5 13.1 24 14
2005-03-07 08:05:38 51°19.083 2°52.964 26.8 13.2 23 14.1
2005-03-07 08:05:44 51°19.102 2°52.977 25.9 13.1 22 14.2
2005-03-07 08:05:48 51°19.118 2°52.987 25.4 13.1 22 14.1
2005-03-07 08:05:53 51°19.134 2°52.999 25.4 13.2 23 14.4
2005-03-07 08:05:58 51°19.152 2°53.011 25.4 13.3 23 14.3
2005-03-07 08:06:04 51°19.17 2°53.023 25.6 12.9 23 14.3
2005-03-07 08:06:09 51°19.186 2°53.035 25.1 12.9 23 14.1
2005-03-07 08:06:12 51°19.197 2°53.042 26.4 12.9 22 14.5
2005-03-07 08:06:18 51°19.213 2°53.055 25.7 12.9 22 14.4
2005-03-07 08:06:24 51°19.234 2°53.071 26 12.9 22 14.3
2005-03-07 08:06:28 51°19.248 2°53.08 27.2 12.9 22 14.2
2005-03-07 08:06:33 51°19.263 2°53.09 26.1 12.9 22 14.3
2005-03-07 08:06:38 51°19.279 2°53.1 25.4 12.7 23 14.7
2005-03-07 08:06:44 51°19.298 2°53.114 25.2 12.7 23 14.7
2005-03-07 08:06:48 51°19.313 2°53.124 25.7 12.7 23 14.8
2005-03-07 08:06:54 51°19.331 2°53.137 26.1 12.7 23 15.1
2005-03-07 08:06:57 51°19.343 2°53.144 25.3 12.9 23 15.2
2005-03-07 08:07:04 51°19.365 2°53.158 25.2 13 22 15
2005-03-07 08:07:08 51°19.376 2°53.168 24.6 13 22 15.2
2005-03-07 08:07:14 51°19.398 2°53.183 25.4 13 22 14.9
2005-03-07 08:07:18 51°19.41 2°53.192 26.4 12.4 25 15
2005-03-07 08:07:22 51°19.422 2°53.202 26.7 12.7 25 15.3
2005-03-07 08:07:28 51°19.442 2°53.216 26.3 12.7 25 15.2
2005-03-07 08:07:32 51°19.455 2°53.226 25.3 12.8 26 15
2005-03-07 08:07:39 51°19.477 2°53.24 26.2 12.7 24 15.4
2005-03-07 08:07:44 51°19.492 2°53.251 25.7 12.7 24 15.6
2005-03-07 08:07:48 51°19.505 2°53.261 25.7 13 24 15.4
2005-03-07 08:07:53 51°19.524 2°53.273 25.7 13 23 15.4
2005-03-07 08:07:58 51°19.538 2°53.283 25.3 13.1 24 15.6
2005-03-07 08:08:04 51°19.559 2°53.298 25.6 13.1 24 15.3
2005-03-07 08:08:08 51°19.574 2°53.308 25.4 13.1 24 15.5
2005-03-07 08:08:14 51°19.592 2°53.319 25.1 13.1 24 15.8
2005-03-07 08:08:18 51°19.608 2°53.331 25.2 13 24 15.7
2005-03-07 08:08:24 51°19.625 2°53.342 25.1 13 24 15.8
2005-03-07 08:08:29 51°19.641 2°53.354 25.4 12.9 24 15.9
2005-03-07 08:08:32 51°19.652 2°53.363 25.8 12.7 24 15.5
2005-03-07 08:08:38 51°19.673 2°53.376 26.2 12.7 23 15.9
2005-03-07 08:08:44 51°19.688 2°53.386 25.4 12.5 23 16.2
2005-03-07 08:08:48 51°19.704 2°53.397 25.3 12.6 22 16.2
2005-03-07 08:08:54 51°19.722 2°53.409 25.3 12.6 22 15.8
2005-03-07 08:08:58 51°19.734 2°53.418 24.9 12.6 22 15.9
2005-03-07 08:09:04 51°19.754 2°53.431 24.9 12.8 22 16.2
2005-03-07 08:09:08 51°19.768 2°53.44 25.3 12.8 22 16.2
2005-03-07 08:09:13 51°19.785 2°53.452 25.4 12.6 23 16.2
2005-03-07 08:09:19 51°19.803 2°53.463 25.3 12.6 23 16.5
2005-03-07 08:09:24 51°19.819 2°53.475 24.5 12.9 23 16.7
2005-03-07 08:09:28 51°19.834 2°53.484 24.5 12.9 23 16.7
2005-03-07 08:09:33 51°19.851 2°53.496 25.1 12.8 23 16.6
2005-03-07 08:09:39 51°19.869 2°53.508 25.1 13 23 16.7
2005-03-07 08:09:44 51°19.886 2°53.52 25.5 13 23 16.7
2005-03-07 08:09:48 51°19.9 2°53.53 25.9 13 23 16.7
2005-03-07 08:09:52 51°19.913 2°53.54 25.6 13 23 17
2005-03-07 08:09:56 51°19.926 2°53.548 25.4 13 23 16.6
2005-03-07 08:10:03 51°19.948 2°53.563 25.4 13 24 16.9
2005-03-07 08:10:09 51°19.966 2°53.576 25.1 13 24 17
2005-03-07 08:10:13 51°19.98 2°53.587 25.8 11.8 25 16.7
2005-03-07 08:10:18 51°19.995 2°53.6 25.2 12 26 49.2
2005-03-07 08:10:24 51°20.012 2°53.612 27.3 12 26 16.6
2005-03-07 08:10:28 51°20.026 2°53.621 27 12 24 16.9
2005-03-07 08:10:34 51°20.043 2°53.634 25.6 12.6 23 17
2005-03-07 08:10:38 51°20.059 2°53.644 25.8 12.6 23 17.1
2005-03-07 08:10:44 51°20.077 2°53.657 25.3 12.6 23 17.2
2005-03-07 08:10:48 51°20.091 2°53.667 25.5 12.9 24 17.3
2005-03-07 08:10:54 51°20.11 2°53.678 25.7 12.9 24 17.5
2005-03-07 08:10:59 51°20.127 2°53.691 24.2 12.9 24 17.5
2005-03-07 08:11:03 51°20.142 2°53.7 24.9 12.9 24 17.5
2005-03-07 08:11:08 51°20.157 2°53.711 25.4 12.9 24 17.6
2005-03-07 08:11:14 51°20.177 2°53.724 25.7 13.2 23 17.5
2005-03-07 08:11:19 51°20.193 2°53.735 25.4 13.2 23 17.5
2005-03-07 08:11:24 51°20.21 2°53.748 25.1 13.2 23 17.6
2005-03-07 08:11:28 51°20.225 2°53.758 25.6 13.2 23 17.7
2005-03-07 08:11:34 51°20.244 2°53.772 25.4 13.3 24 17.4
2005-03-07 08:11:39 51°20.262 2°53.784 25.8 13.3 24 17.5
2005-03-07 08:11:44 51°20.277 2°53.796 25.7 13.3 24 17.6
2005-03-07 08:11:48 51°20.294 2°53.806 25.5 13.1 23 17.3
2005-03-07 08:11:54 51°20.312 2°53.819 24.6 13 23 17.5
2005-03-07 08:11:58 51°20.327 2°53.829 25.8 13 23 17.6
2005-03-07 08:12:04 51°20.346 2°53.841 25.4 13.3 23 17.5
2005-03-07 08:12:09 51°20.361 2°53.852 24.6 13.3 23 17.8
2005-03-07 08:12:12 51°20.373 2°53.86 25.3 12.9 23 17.5
2005-03-07 08:12:18 51°20.394 2°53.874 25.1 12.9 23 17.6
2005-03-07 08:12:24 51°20.409 2°53.884 24.4 12.9 23 -999
2005-03-07 08:12:29 51°20.426 2°53.896 24.9 12.9 23 18.2
2005-03-07 08:12:33 51°20.44 2°53.907 25.7 12.6 23 17.6
2005-03-07 08:12:39 51°20.458 2°53.919 24.7 12.6 23 17.4
2005-03-07 08:12:44 51°20.473 2°53.931 26.2 12.6 23 17.5
2005-03-07 08:12:49 51°20.489 2°53.942 26.5 12.6 23 17.7
2005-03-07 08:12:52 51°20.5 2°53.95 25.8 12.9 24 17.8
2005-03-07 08:12:58 51°20.518 2°53.963 26.1 12.5 25 18.3
2005-03-07 08:13:03 51°20.536 2°53.975 26.5 12.9 23 18.1
2005-03-07 08:13:08 51°20.551 2°53.985 25.7 12.9 23 18.3
2005-03-07 08:13:14 51°20.571 2°53.999 25.4 13 23 18.2
2005-03-07 08:13:18 51°20.584 2°54.008 25.8 13.2 24 18.5
2005-03-07 08:13:24 51°20.605 2°54.022 25.1 13.2 24 18.3
2005-03-07 08:13:28 51°20.62 2°54.032 25.4 13.2 24 18.1
2005-03-07 08:13:34 51°20.638 2°54.044 25.4 13.2 24 18.4
2005-03-07 08:13:38 51°20.651 2°54.053 25.3 13.1 24 18.4
2005-03-07 08:13:43 51°20.67 2°54.067 25.4 13.1 24 18
2005-03-07 08:13:48 51°20.686 2°54.078 26.1 13.1 24 -999
2005-03-07 08:13:53 51°20.702 2°54.09 25.5 13.1 24 18
2005-03-07 08:13:58 51°20.719 2°54.101 25.6 12.8 21 18.1
2005-03-07 08:14:03 51°20.736 2°54.112 24.9 12.9 22 18.1
2005-03-07 08:14:08 51°20.751 2°54.121 24.2 13.1 22 18.3
2005-03-07 08:14:12 51°20.766 2°54.132 24.1 13.1 22 18.2
2005-03-07 08:14:17 51°20.782 2°54.143 24.8 13.2 24 18.2
2005-03-07 08:14:23 51°20.802 2°54.158 25.4 13.3 24 18.2
2005-03-07 08:14:29 51°20.822 2°54.171 26.1 13.3 24 18.2
2005-03-07 08:14:34 51°20.838 2°54.182 25.9 13.2 22 18.3
2005-03-07 08:14:38 51°20.853 2°54.193 24.7 13.3 23 18.4
2005-03-07 08:14:43 51°20.87 2°54.204 25.4 13.3 24 18
2005-03-07 08:14:49 51°20.888 2°54.216 24.8 13.3 24 17.6
2005-03-07 08:14:52 51°20.899 2°54.223 25.2 13.3 24 18.3
2005-03-07 08:14:59 51°20.919 2°54.238 25.5 12.6 23 18.1
2005-03-07 08:15:03 51°20.934 2°54.248 25.4 12.9 24 18.1
2005-03-07 08:15:08 51°20.95 2°54.261 26.2 12.7 26 18.2
2005-03-07 08:15:12 51°20.963 2°54.271 27.5 12.7 26 18.3
2005-03-07 08:15:17 51°20.978 2°54.282 28.2 13 27 18.3
2005-03-07 08:15:22 51°20.996 2°54.297 28.6 13.2 27 18.2
2005-03-07 08:15:28 51°21.014 2°54.312 29 13.2 27 18.6
2005-03-07 08:15:34 51°21.031 2°54.327 29.3 13.2 27 18.3
2005-03-07 08:15:38 51°21.045 2°54.337 29.2 12.9 25 17.8
2005-03-07 08:15:43 51°21.063 2°54.351 28.3 13 26 18.4
2005-03-07 08:15:48 51°21.078 2°54.363 28.8 12.9 27 18.9
2005-03-07 08:15:54 51°21.096 2°54.379 28.6 12.8 26 18.5
2005-03-07 08:15:58 51°21.109 2°54.388 29 12.9 25 18.3
2005-03-07 08:16:04 51°21.129 2°54.403 28.4 13.1 26 18.6
2005-03-07 08:16:08 51°21.144 2°54.415 28.3 13 26 18.8
2005-03-07 08:16:12 51°21.157 2°54.425 28.4 13.2 26 18.7
2005-03-07 08:16:19 51°21.178 2°54.442 28.4 13.2 26 18.8
2005-03-07 08:16:24 51°21.195 2°54.454 28.3 13.4 26 18.8
2005-03-07 08:16:28 51°21.209 2°54.465 27.6 13.4 26 18.7
2005-03-07 08:16:34 51°21.229 2°54.48 28.2 13.4 26 18.7
2005-03-07 08:16:39 51°21.246 2°54.494 28.1 13.4 26 18.7
2005-03-07 08:16:43 51°21.261 2°54.506 28 13.3 27 18.3
2005-03-07 08:16:49 51°21.276 2°54.52 28.1 13.3 27 -999
2005-03-07 08:16:54 51°21.293 2°54.534 29.3 13 29 18.7
2005-03-07 08:16:58 51°21.305 2°54.543 29.3 13 29 18.7
2005-03-07 08:17:03 51°21.324 2°54.559 28.3 12.9 28 18.3
2005-03-07 08:17:08 51°21.339 2°54.571 29.3 12.9 28 18.7
2005-03-07 08:17:14 51°21.357 2°54.587 29.2 12.9 28 18.6
2005-03-07 08:17:18 51°21.371 2°54.598 29.4 13.1 28 18.6
2005-03-07 08:17:24 51°21.389 2°54.612 29 13.3 27 18.8
2005-03-07 08:17:29 51°21.407 2°54.626 29.3 13.3 27 18.6
2005-03-07 08:17:33 51°21.421 2°54.638 29.4 13.3 26 18.8
2005-03-07 08:17:38 51°21.436 2°54.65 28.4 13.3 26 18.9
2005-03-07 08:17:44 51°21.457 2°54.667 28.7 13.3 26 18.7
2005-03-07 08:17:49 51°21.473 2°54.679 28.8 13.5 27 19
2005-03-07 08:17:54 51°21.489 2°54.691 28.1 13.5 27 19.3
2005-03-07 08:17:59 51°21.505 2°54.705 28.2 13.1 27 19.1
2005-03-07 08:18:04 51°21.523 2°54.72 28.6 13.1 27 18.7
2005-03-07 08:18:09 51°21.539 2°54.732 29.7 13.1 27 18.6
2005-03-07 08:18:14 51°21.555 2°54.746 29 13.3 26 18.9
2005-03-07 08:18:19 51°21.572 2°54.759 28.7 13.2 28 18.8
2005-03-07 08:18:24 51°21.586 2°54.772 28.8 13.2 28 19.2
2005-03-07 08:18:28 51°21.602 2°54.784 28.7 13.2 28 19.2
2005-03-07 08:18:33 51°21.617 2°54.796 29 13.3 26 19.1
2005-03-07 08:18:38 51°21.636 2°54.811 28.1 13.3 26 19.2
2005-03-07 08:18:44 51°21.653 2°54.824 28.3 13.2 26 19.5
2005-03-07 08:18:48 51°21.668 2°54.838 27.7 13.4 25 19.2
2005-03-07 08:18:54 51°21.687 2°54.851 28.8 13.4 25 19.1
2005-03-07 08:18:58 51°21.699 2°54.862 28 13 25 19.3
2005-03-07 08:19:04 51°21.718 2°54.877 27.9 13.1 27 19.3
2005-03-07 08:19:08 51°21.733 2°54.889 27.8 13.2 28 19.3
2005-03-07 08:19:14 51°21.752 2°54.903 28.2 13.2 28 19.2
2005-03-07 08:19:18 51°21.767 2°54.915 27.5 13.3 25 19.4
2005-03-07 08:19:24 51°21.784 2°54.929 27.8 13.3 27 19.5
2005-03-07 08:19:28 51°21.8 2°54.941 28.2 13.2 26 19.1
2005-03-07 08:19:34 51°21.817 2°54.955 28 13.2 26 19.5
2005-03-07 08:19:39 51°21.835 2°54.97 28.3 13.2 28 19.3
2005-03-07 08:19:43 51°21.849 2°54.981 29 13.2 26 19.2
2005-03-07 08:19:48 51°21.864 2°54.994 28.1 13.1 27 19.4
2005-03-07 08:19:52 51°21.878 2°55.005 28.5 13.1 26 19.3
2005-03-07 08:19:59 51°21.9 2°55.021 28.5 13.2 26 19.1
2005-03-07 08:20:03 51°21.914 2°55.032 27.4 13.3 25 19.4
2005-03-07 08:20:08 51°21.929 2°55.043 26.5 13.3 25 19.3
2005-03-07 08:20:14 51°21.949 2°55.056 26.2 13.3 25 19.3
2005-03-07 08:20:18 51°21.964 2°55.068 24.6 13 22 19.5
2005-03-07 08:20:24 51°21.984 2°55.08 24.7 13.2 24 19.3
2005-03-07 08:20:28 51°21.998 2°55.09 24.4 13.2 23 19.4
2005-03-07 08:20:34 51°22.017 2°55.104 25 12.9 23 19.6
2005-03-07 08:20:38 51°22.03 2°55.112 24.8 12.9 23 19.3
2005-03-07 08:20:44 51°22.05 2°55.126 24.6 13.2 22 19.6
2005-03-07 08:20:48 51°22.063 2°55.134 24.6 13.2 22 19.8
2005-03-07 08:20:53 51°22.082 2°55.147 24.4 13.4 23 19.8
2005-03-07 08:20:58 51°22.098 2°55.158 24.5 13.4 24 20.4
2005-03-07 08:21:04 51°22.116 2°55.17 24.8 13.4 24 20.3
2005-03-07 08:21:08 51°22.132 2°55.181 24.8 12.5 24 20
2005-03-07 08:21:14 51°22.149 2°55.193 24.4 12.6 24 -999
2005-03-07 08:21:19 51°22.166 2°55.204 24.8 12.6 24 20.2
2005-03-07 08:21:23 51°22.18 2°55.215 24.5 13 24 20.2
2005-03-07 08:21:29 51°22.198 2°55.228 25 13 24 20.3
2005-03-07 08:21:34 51°22.215 2°55.24 24.8 13.1 23 20.3
2005-03-07 08:21:38 51°22.228 2°55.249 25.4 13.3 23 20.4
2005-03-07 08:21:44 51°22.25 2°55.263 25.5 13.3 23 20.3
2005-03-07 08:21:49 51°22.265 2°55.275 24.9 13.3 23 20.9
2005-03-07 08:21:53 51°22.278 2°55.285 25 13.3 25 20.9
2005-03-07 08:21:58 51°22.298 2°55.298 25.7 13.4 23 21
2005-03-07 08:22:03 51°22.314 2°55.31 25 13.3 23 21.1
2005-03-07 08:22:09 51°22.333 2°55.324 24.4 13.3 23 20.9
2005-03-07 08:22:14 51°22.35 2°55.334 24.5 13.3 23 20.5
2005-03-07 08:22:18 51°22.363 2°55.344 24.5 13.3 23 20.5
2005-03-07 08:22:24 51°22.383 2°55.359 25.4 13 24 -999
2005-03-07 08:22:28 51°22.399 2°55.37 26 13.2 24 20.5
2005-03-07 08:22:34 51°22.417 2°55.383 24.9 13.3 24 20.4
2005-03-07 08:22:38 51°22.433 2°55.395 25.5 13.3 24 20.1
2005-03-07 08:22:44 51°22.452 2°55.408 25.7 13.4 24 20
2005-03-07 08:22:48 51°22.464 2°55.417 25.4 13 25 20.4
2005-03-07 08:22:54 51°22.482 2°55.432 25.5 13 25 20.6
2005-03-07 08:22:58 51°22.494 2°55.443 26.1 13 25 19.8
2005-03-07 08:23:04 51°22.514 2°55.457 27 13 25 19.9
2005-03-07 08:23:08 51°22.528 2°55.468 26.8 12.6 25 20.1
2005-03-07 08:23:13 51°22.543 2°55.48 26.5 12.8 25 19.9
2005-03-07 08:23:18 51°22.56 2°55.491 25.9 13 25 20.1
2005-03-07 08:23:24 51°22.579 2°55.506 25.3 13.1 24 20.2
2005-03-07 08:23:28 51°22.593 2°55.516 26 13.2 26 20.4
2005-03-07 08:23:34 51°22.612 2°55.53 25.8 13.2 26 20.3
2005-03-07 08:23:38 51°22.626 2°55.54 25.3 12.8 26 20.1
2005-03-07 08:23:44 51°22.643 2°55.555 25.4 12.8 26 20.4
2005-03-07 08:23:49 51°22.661 2°55.568 26.8 13 26 20.2
2005-03-07 08:23:53 51°22.673 2°55.578 25.9 12.9 24 37.1
2005-03-07 08:23:58 51°22.691 2°55.59 25.9 12.9 24 20.1
2005-03-07 08:24:03 51°22.706 2°55.602 25.4 12.7 26 20.1
2005-03-07 08:24:09 51°22.725 2°55.614 26.3 12.9 25 20.1
2005-03-07 08:24:14 51°22.74 2°55.627 25.4 12.9 23 20.3
2005-03-07 08:24:19 51°22.758 2°55.638 25.5 12.9 23 20.2
2005-03-07 08:24:24 51°22.774 2°55.649 25.4 13.2 23 20.5
2005-03-07 08:24:28 51°22.789 2°55.661 24.6 13.3 24 20.5
2005-03-07 08:24:33 51°22.806 2°55.671 24.8 13.3 23 20.5
2005-03-07 08:24:38 51°22.823 2°55.684 24.6 13.3 23 20.5
2005-03-07 08:24:43 51°22.84 2°55.695 24.7 13.3 22 20.4
2005-03-07 08:24:48 51°22.855 2°55.705 24 13.4 25 20.4
2005-03-07 08:24:54 51°22.877 2°55.719 24.4 13.4 21 20.5
2005-03-07 08:24:59 51°22.893 2°55.729 24.6 13.4 21 20.6
2005-03-07 08:25:02 51°22.905 2°55.738 24.4 13.3 23 20.8
2005-03-07 08:25:08 51°22.921 2°55.752 25.3 13.1 26 20.2
2005-03-07 08:25:14 51°22.943 2°55.767 25.1 12.9 24 19.9
2005-03-07 08:25:19 51°22.958 2°55.778 26.6 12.9 24 20.4
2005-03-07 08:25:24 51°22.976 2°55.79 25.9 12.9 24 20.2
2005-03-07 08:25:29 51°22.99 2°55.801 25.6 12.9 24 20.7
2005-03-07 08:25:33 51°23.006 2°55.813 25.3 12.9 24 20.6
2005-03-07 08:25:38 51°23.023 2°55.825 25.7 12.7 25 20.8
2005-03-07 08:25:43 51°23.038 2°55.836 26 12.7 25 21.1
2005-03-07 08:25:49 51°23.055 2°55.849 25.4 12.7 25 21.1
2005-03-07 08:25:53 51°23.069 2°55.858 25.6 13 23 21
2005-03-07 08:25:59 51°23.09 2°55.873 24.9 13 23 21
2005-03-07 08:26:04 51°23.107 2°55.884 25 13 23 21.1
2005-03-07 08:26:08 51°23.122 2°55.894 24.4 13.3 22 21.4
2005-03-07 08:26:13 51°23.139 2°55.906 25.2 13.3 24 21.4
2005-03-07 08:26:18 51°23.156 2°55.917 24.8 13.4 23 21.6
2005-03-07 08:26:23 51°23.173 2°55.93 24.5 13.3 24 21.3
2005-03-07 08:26:28 51°23.19 2°55.94 25.4 13.2 24 21.5
2005-03-07 08:26:33 51°23.206 2°55.952 25.2 13.3 24 21.6
2005-03-07 08:26:38 51°23.223 2°55.964 24.7 13.3 24 21.5
2005-03-07 08:26:42 51°23.236 2°55.974 24.6 13 25 21.3
2005-03-07 08:26:49 51°23.259 2°55.99 25.7 13 25 21.5
2005-03-07 08:26:53 51°23.272 2°56 26.4 13 25 -999
2005-03-07 08:26:58 51°23.286 2°56.011 26 12.8 24 21.3
2005-03-07 08:27:04 51°23.305 2°56.024 25.5 12.8 25 21.6
2005-03-07 08:27:09 51°23.32 2°56.036 25 12.8 25 21.6
2005-03-07 08:27:14 51°23.339 2°56.048 25.8 12.8 25 21.3
2005-03-07 08:27:19 51°23.353 2°56.06 25.4 12.8 25 21.4
2005-03-07 08:27:24 51°23.37 2°56.07 26 12.8 24 21.7
2005-03-07 08:27:28 51°23.383 2°56.08 24.8 12.8 24 21.4
2005-03-07 08:27:34 51°23.404 2°56.094 25.4 12.8 24 21.3
2005-03-07 08:27:38 51°23.418 2°56.105 24.8 13.3 24 21.5
2005-03-07 08:27:44 51°23.436 2°56.118 25 13 25 21.3
2005-03-07 08:27:48 51°23.45 2°56.127 24.7 13.1 23 21
2005-03-07 08:27:54 51°23.47 2°56.142 25.4 13.1 23 20.6
2005-03-07 08:27:58 51°23.484 2°56.152 25.2 13.2 23 20.2
2005-03-07 08:28:03 51°23.502 2°56.163 25.2 13.2 22 21.2
2005-03-07 08:28:08 51°23.519 2°56.175 24.4 13.3 22 20.6
2005-03-07 08:28:13 51°23.536 2°56.186 24.8 13.1 23 19.9
2005-03-07 08:28:17 51°23.549 2°56.196 24.6 13.2 24 18.4
2005-03-07 08:28:24 51°23.571 2°56.211 25.6 13.2 24 20.7
2005-03-07 08:28:28 51°23.585 2°56.222 25.3 13.2 24 20.4
2005-03-07 08:28:32 51°23.599 2°56.23 25.5 13 22 19.3
2005-03-07 08:28:36 51°23.612 2°56.24 25.3 12.9 25 17.5
2005-03-07 08:28:44 51°23.637 2°56.258 25.7 12.9 25 20.2
2005-03-07 08:28:48 51°23.651 2°56.268 25 12.9 25 19.5
2005-03-07 08:28:54 51°23.671 2°56.283 24.8 12.9 25 17.5
2005-03-07 08:28:58 51°23.685 2°56.294 25 13 27 20.4
2005-03-07 08:29:04 51°23.703 2°56.306 26.1 13.2 25 19.9
2005-03-07 08:29:08 51°23.716 2°56.316 25.4 13.1 25 18.5
2005-03-07 08:29:14 51°23.737 2°56.33 25.4 13.1 25 14.4
2005-03-07 08:29:18 51°23.75 2°56.34 25.3 13.2 23 16.9
2005-03-07 08:29:23 51°23.769 2°56.353 25.4 13.1 22 17.9
2005-03-07 08:29:28 51°23.786 2°56.366 24.4 13 24 18.1
2005-03-07 08:29:32 51°23.799 2°56.375 26.1 13 24 17.6
2005-03-07 08:29:39 51°23.82 2°56.391 25.4 13 24 16.8
2005-03-07 08:29:44 51°23.836 2°56.404 26.2 13.1 25 18.7
2005-03-07 08:29:48 51°23.852 2°56.415 26.1 13.1 25 18.3
2005-03-07 08:29:53 51°23.867 2°56.426 25.9 13.1 25 17
2005-03-07 08:29:59 51°23.886 2°56.44 25.1 13.1 25 17.1
2005-03-07 08:30:04 51°23.902 2°56.452 25.9 13.1 25 18
2005-03-07 08:30:09 51°23.919 2°56.464 25.4 13.1 25 18.2
2005-03-07 08:30:13 51°23.935 2°56.475 25.1 13.2 24 17.4
2005-03-07 08:30:18 51°23.951 2°56.486 25 13.3 25 16.9
2005-03-07 08:30:24 51°23.968 2°56.5 24.7 13.1 25 18.8
2005-03-07 08:30:29 51°23.986 2°56.513 25.4 13.1 25 17.8
2005-03-07 08:30:32 51°23.997 2°56.52 25.4 13.1 25 17.2
2005-03-07 08:30:39 51°24.018 2°56.535 25.7 13.1 25 18.3
2005-03-07 08:30:44 51°24.035 2°56.548 25 13.1 25 17
2005-03-07 08:30:48 51°24.05 2°56.558 25.4 13.1 25 18.4
2005-03-07 08:30:54 51°24.069 2°56.571 24.6 -999 -999 17
2005-03-07 08:30:58 51°24.082 2°56.581 24.9 -999 -999 18.1
2005-03-07 08:31:03 51°24.1 2°56.594 25 -999 -999 18.6
2005-03-07 08:31:09 51°24.119 2°56.607 24.3 13.3 24 18.1
2005-03-07 08:31:14 51°24.137 2°56.619 24.6 13.3 24 17.1
2005-03-07 08:31:18 51°24.15 2°56.628 24.1 12.9 24 15.2
2005-03-07 08:31:23 51°24.166 2°56.64 25.1 12.8 25 17.4
2005-03-07 08:31:29 51°24.185 2°56.654 24.9 12.8 25 17.6
2005-03-07 08:31:34 51°24.201 2°56.666 25.3 12.9 26 17.3
2005-03-07 08:31:38 51°24.214 2°56.675 25.5 13.1 24 18.7
2005-03-07 08:31:44 51°24.234 2°56.689 25.6 13.3 25 18.4
2005-03-07 08:31:48 51°24.25 2°56.701 25.3 13.4 22 17
2005-03-07 08:31:54 51°24.268 2°56.715 25 13.4 22 17.1
2005-03-07 08:31:59 51°24.283 2°56.728 25.3 13.2 25 19.3
2005-03-07 08:32:04 51°24.301 2°56.74 26 13.2 25 19.8
2005-03-07 08:32:08 51°24.316 2°56.751 25.3 13.2 25 19.8
2005-03-07 08:32:13 51°24.332 2°56.763 25.4 12.9 25 19.2
2005-03-07 08:32:19 51°24.348 2°56.777 25.7 12.9 25 18.3
2005-03-07 08:32:23 51°24.363 2°56.787 25.3 12.9 25 17.3
2005-03-07 08:32:28 51°24.381 2°56.8 25.6 12.9 25 18.7
2005-03-07 08:32:33 51°24.398 2°56.812 25.6 13.2 25 19.6
2005-03-07 08:32:37 51°24.411 2°56.821 25.2 13.3 24 19.8
2005-03-07 08:32:44 51°24.433 2°56.838 24.6 13.4 23 19.6
2005-03-07 08:32:48 51°24.447 2°56.847 24.3 13.4 23 19.7
2005-03-07 08:32:54 51°24.466 2°56.861 24.8 13.4 25 20.4
2005-03-07 08:32:58 51°24.48 2°56.872 25.4 13.4 25 20.5
2005-03-07 08:33:04 51°24.5 2°56.886 26.2 13.5 25 20.6
2005-03-07 08:33:08 51°24.516 2°56.898 25 13.3 24 21
2005-03-07 08:33:13 51°24.533 2°56.911 24.7 13.3 24 21.3
2005-03-07 08:33:19 51°24.548 2°56.924 25.3 13.3 24 20.1
2005-03-07 08:33:24 51°24.564 2°56.936 26.1 12.4 24 21.5
2005-03-07 08:33:28 51°24.578 2°56.947 26.1 12.5 26 21
2005-03-07 08:33:33 51°24.595 2°56.958 25.6 12.5 26 21.2
2005-03-07 08:33:37 51°24.608 2°56.968 24.4 12.5 26 21.3
2005-03-07 08:33:44 51°24.63 2°56.982 24.3 12.9 23 21.6
2005-03-07 08:33:48 51°24.645 2°56.994 23.8 12.9 23 21.6
2005-03-07 08:33:53 51°24.662 2°57.005 23.8 13 24 21.7
2005-03-07 08:33:58 51°24.677 2°57.016 23.4 13 24 22.4
2005-03-07 08:34:04 51°24.695 2°57.029 23.8 12.9 23 22.5
2005-03-07 08:34:08 51°24.711 2°57.04 24 12.9 23 22.3
2005-03-07 08:34:14 51°24.729 2°57.051 23.6 12.9 23 22.8
2005-03-07 08:34:19 51°24.745 2°57.061 23.7 13.2 24 23.1
2005-03-07 08:34:24 51°24.763 2°57.074 22.3 13.2 24 22.9
2005-03-07 08:34:28 51°24.778 2°57.083 22.9 13 23 23.4
2005-03-07 08:34:33 51°24.793 2°57.093 22.8 13 23 23.4
2005-03-07 08:34:39 51°24.814 2°57.107 23.9 13 23 23.4
2005-03-07 08:34:44 51°24.828 2°57.119 23.1 13 23 23.9
2005-03-07 08:34:48 51°24.844 2°57.13 22.9 13 23 23.6
2005-03-07 08:34:53 51°24.861 2°57.141 24.1 13.3 24 23.9
2005-03-07 08:34:57 51°24.875 2°57.149 23.2 13.3 22 23.6
2005-03-07 08:35:04 51°24.897 2°57.164 22.5 13.3 22 24
2005-03-07 08:35:08 51°24.913 2°57.174 22.8 13.3 22 24
2005-03-07 08:35:12 51°24.926 2°57.183 22.2 13.3 22 24.1
2005-03-07 08:35:19 51°24.948 2°57.197 22.4 13.2 22 24.5
2005-03-07 08:35:24 51°24.964 2°57.208 23.2 13.2 22 24.6
2005-03-07 08:35:29 51°24.982 2°57.219 23.4 13.5 23 24.7
2005-03-07 08:35:34 51°25 2°57.231 22.5 13.2 21 24.4
2005-03-07 08:35:38 51°25.015 2°57.241 22.9 13.1 23 24.7
2005-03-07 08:35:44 51°25.031 2°57.254 22.9 13.3 22 -999
2005-03-07 08:35:49 51°25.047 2°57.267 23.9 12.8 26 25
2005-03-07 08:35:54 51°25.064 2°57.279 25.5 12.6 24 25.1
2005-03-07 08:35:58 51°25.077 2°57.288 24.7 12.6 24 25.2
2005-03-07 08:36:04 51°25.096 2°57.302 24.2 12.6 24 25.5
2005-03-07 08:36:08 51°25.112 2°57.312 24.3 12.6 24 25.4
2005-03-07 08:36:14 51°25.131 2°57.326 22.9 13.1 23 25.4
2005-03-07 08:36:19 51°25.148 2°57.335 23.5 13.1 23 25.7
2005-03-07 08:36:23 51°25.163 2°57.345 22.8 13.1 22 25.9
2005-03-07 08:36:28 51°25.18 2°57.356 22.6 13.2 21 25.9
2005-03-07 08:36:33 51°25.197 2°57.368 22.5 13.2 22 25.9
2005-03-07 08:36:38 51°25.213 2°57.377 22.3 13.4 22 26.1
2005-03-07 08:36:42 51°25.229 2°57.388 23 13.2 23 26.2
2005-03-07 08:36:48 51°25.245 2°57.399 22.9 13.2 23 26.2
2005-03-07 08:36:54 51°25.267 2°57.414 23.5 13.2 23 26.4
2005-03-07 08:36:58 51°25.283 2°57.423 23.9 13.4 21 26.6
2005-03-07 08:37:04 51°25.301 2°57.435 23 13.4 21 26.8
2005-03-07 08:37:08 51°25.315 2°57.444 22.8 13.6 22 26.7
2005-03-07 08:37:13 51°25.334 2°57.457 22.9 13.6 22 26.9
2005-03-07 08:37:19 51°25.353 2°57.469 22.9 13.6 22 26.7
2005-03-07 08:37:24 51°25.37 2°57.48 23.6 13.6 21 26.7
2005-03-07 08:37:29 51°25.388 2°57.492 22.9 13.4 23 26.7
2005-03-07 08:37:33 51°25.402 2°57.5 23.3 13.5 21 27.1
2005-03-07 08:37:38 51°25.42 2°57.512 22.5 13.3 21 26.9
2005-03-07 08:37:43 51°25.437 2°57.524 22.4 12.6 25 26
2005-03-07 08:37:49 51°25.453 2°57.536 23.6 12.6 25 26.4
2005-03-07 08:37:54 51°25.47 2°57.548 24.6 12.5 25 26.5
2005-03-07 08:37:58 51°25.485 2°57.557 24.3 12.7 24 26.5
2005-03-07 08:38:03 51°25.501 2°57.57 23.8 12.8 22 26.6
2005-03-07 08:38:08 51°25.517 2°57.579 23.4 13.2 23 26.8
2005-03-07 08:38:14 51°25.538 2°57.592 23.1 13.2 23 26.7
2005-03-07 08:38:19 51°25.554 2°57.602 22.8 13.2 23 27.2
2005-03-07 08:38:24 51°25.569 2°57.613 22.8 13.1 24 -999
2005-03-07 08:38:28 51°25.585 2°57.624 23.6 13.1 24 26.7
2005-03-07 08:38:34 51°25.603 2°57.635 24.1 13.2 24 26.6
2005-03-07 08:38:38 51°25.62 2°57.646 23.2 13.2 24 26.3
2005-03-07 08:38:44 51°25.639 2°57.658 22.6 13.3 21 26.5
2005-03-07 08:38:49 51°25.654 2°57.668 23 13.3 21 26.7
2005-03-07 08:38:52 51°25.666 2°57.676 23.3 12.9 23 26.6
2005-03-07 08:38:59 51°25.689 2°57.692 22.7 13.2 22 26.2
2005-03-07 08:39:04 51°25.705 2°57.703 23.7 12.9 24 26.2
2005-03-07 08:39:08 51°25.72 2°57.713 24.3 13 23 26.2
2005-03-07 08:39:12 51°25.734 2°57.722 23.8 13 23 26.1
2005-03-07 08:39:19 51°25.756 2°57.737 23.3 13 23 26.2
2005-03-07 08:39:23 51°25.771 2°57.747 23.3 13.3 23 26.1
2005-03-07 08:39:28 51°25.788 2°57.758 24 13.3 23 25.9
2005-03-07 08:39:34 51°25.806 2°57.77 23.4 13.3 23 26
2005-03-07 08:39:38 51°25.823 2°57.781 22.6 13.3 23 25.7
2005-03-07 08:39:44 51°25.842 2°57.793 23 13.4 23 25.5
2005-03-07 08:39:48 51°25.855 2°57.802 23.2 13.2 22 25.5
2005-03-07 08:39:53 51°25.873 2°57.814 23.1 13.2 22 25.4
2005-03-07 08:39:59 51°25.893 2°57.827 22.8 13.2 22 25
2005-03-07 08:40:03 51°25.906 2°57.836 22.8 13.2 22 24.5
2005-03-07 08:40:09 51°25.926 2°57.848 23.4 13 22 24.2
2005-03-07 08:40:13 51°25.939 2°57.857 23.2 12.9 23 24.5
2005-03-07 08:40:18 51°25.959 2°57.869 23.1 12.8 22 24
2005-03-07 08:40:23 51°25.974 2°57.88 22.2 12.9 24 24.3
2005-03-07 08:40:29 51°25.992 2°57.891 23.5 12.9 24 24.3
2005-03-07 08:40:33 51°26.007 2°57.902 22.7 12.8 22 24
2005-03-07 08:40:39 51°26.027 2°57.915 22.8 12.8 22 23.7
2005-03-07 08:40:44 51°26.042 2°57.924 22.9 13 22 23.7
2005-03-07 08:40:48 51°26.056 2°57.933 22.4 13.2 23 21.5
2005-03-07 08:40:52 51°26.071 2°57.943 22.9 13.2 23 22.8
2005-03-07 08:40:56 51°26.085 2°57.952 22.9 13.2 21 23.4
2005-03-07 08:41:03 51°26.109 2°57.968 22.9 13.2 23 23.2
2005-03-07 08:41:09 51°26.128 2°57.979 23.3 13.2 23 23.2
2005-03-07 08:41:14 51°26.145 2°57.991 23.1 13.2 23 23.2
2005-03-07 08:41:18 51°26.16 2°58 23.2 13.2 23 23.1
2005-03-07 08:41:23 51°26.177 2°58.012 22.6 13.1 23 19.5
2005-03-07 08:41:28 51°26.193 2°58.024 23.7 13.1 23 21.1
2005-03-07 08:41:34 51°26.212 2°58.036 24.3 13.4 23 21.6
2005-03-07 08:41:38 51°26.227 2°58.046 23.6 13.1 22 22
2005-03-07 08:41:44 51°26.245 2°58.06 23.3 13.1 22 22
2005-03-07 08:41:48 51°26.259 2°58.068 24.6 13.1 22 20.2
2005-03-07 08:41:54 51°26.279 2°58.083 24.2 13.1 22 20.9
2005-03-07 08:41:58 51°26.293 2°58.092 23.9 13.2 23 21.1
2005-03-07 08:42:03 51°26.312 2°58.104 23.8 13.4 23 21.1
2005-03-07 08:42:08 51°26.329 2°58.115 23.3 13.5 22 19.8
2005-03-07 08:42:14 51°26.348 2°58.127 23.5 13.4 21 20.3
2005-03-07 08:42:19 51°26.365 2°58.138 23 13.4 23 20.6
2005-03-07 08:42:24 51°26.383 2°58.148 22.9 13.4 23 20.4
2005-03-07 08:42:28 51°26.398 2°58.158 22.4 13.4 23 20.5
2005-03-07 08:42:33 51°26.414 2°58.169 23.2 13.2 22 19.4
2005-03-07 08:42:37 51°26.428 2°58.179 23.3 13.1 22 17.2
2005-03-07 08:42:44 51°26.45 2°58.193 22.9 13.1 22 18.3
2005-03-07 08:42:48 51°26.466 2°58.202 23.2 13.1 22 19.3
2005-03-07 08:42:52 51°26.479 2°58.211 22.6 13.1 22 19.8
2005-03-07 08:42:59 51°26.501 2°58.226 23.2 13.1 23 17.7
2005-03-07 08:43:04 51°26.517 2°58.237 23 13.1 23 18.9
2005-03-07 08:43:08 51°26.532 2°58.247 22.8 13.1 23 19.5
2005-03-07 08:43:14 51°26.55 2°58.26 22.6 12.9 23 17.9
2005-03-07 08:43:19 51°26.568 2°58.27 23.2 12.9 23 18.7
2005-03-07 08:43:23 51°26.583 2°58.28 23.1 13.2 22 18.4
2005-03-07 08:43:28 51°26.6 2°58.291 22.8 12.7 22 18.8
2005-03-07 08:43:33 51°26.616 2°58.302 22.4 12.7 22 19.3
2005-03-07 08:43:39 51°26.634 2°58.313 23.6 12.7 22 -999
2005-03-07 08:43:44 51°26.648 2°58.324 23.4 12.3 22 -999
2005-03-07 08:43:48 51°26.663 2°58.334 23.6 12.7 25 19.7
2005-03-07 08:43:53 51°26.677 2°58.344 24 12.7 25 20.2
2005-03-07 08:43:59 51°26.697 2°58.358 24 12.6 24 19.3
2005-03-07 08:44:04 51°26.713 2°58.37 23.2 12.6 24 19.4
2005-03-07 08:44:08 51°26.726 2°58.378 24.4 12.5 24 20.5
2005-03-07 08:44:14 51°26.745 2°58.393 23.7 12.8 25 20.7
2005-03-07 08:44:18 51°26.758 2°58.402 24.7 12.8 25 21.2
2005-03-07 08:44:24 51°26.779 2°58.416 23.9 12.8 25 21
2005-03-07 08:44:28 51°26.793 2°58.426 23.4 12.9 23 19
2005-03-07 08:44:33 51°26.809 2°58.436 23.9 12.8 22 19.6
2005-03-07 08:44:38 51°26.825 2°58.445 22.5 13 21 19
2005-03-07 08:44:44 51°26.844 2°58.458 22.5 13 21 19.8
2005-03-07 08:44:49 51°26.86 2°58.469 22.4 13 21 19.5
2005-03-07 08:44:54 51°26.878 2°58.48 22.6 13 21 19.5
2005-03-07 08:44:58 51°26.893 2°58.49 22.8 13 21 19.4
2005-03-07 08:45:04 51°26.911 2°58.501 23 13 23 20.1
2005-03-07 08:45:09 51°26.927 2°58.512 22.5 12.9 23 20.2
2005-03-07 08:45:12 51°26.939 2°58.519 23.2 13 21 17.2
2005-03-07 08:45:19 51°26.961 2°58.534 22.5 13 21 18.3
2005-03-07 08:45:24 51°26.979 2°58.544 22.8 13 21 17.8
2005-03-07 08:45:28 51°26.993 2°58.554 21.7 13 21 18.3
2005-03-07 08:45:32 51°27.006 2°58.563 23.8 13 21 18.8
2005-03-07 08:45:39 51°27.027 2°58.579 24.4 13 21 17.8
2005-03-07 08:45:44 51°27.044 2°58.592 24.6 -999 -999 17.9
2005-03-07 08:45:48 51°27.059 2°58.603 26.8 -999 -999 18.3
2005-03-07 08:45:54 51°27.077 2°58.618 26.8 13.2 26 18.6
2005-03-07 08:45:59 51°27.094 2°58.631 26.3 13.2 26 19.3
2005-03-07 08:46:04 51°27.111 2°58.644 26.1 13.2 27 19.3
2005-03-07 08:46:09 51°27.126 2°58.656 26.7 13.2 27 19.8
2005-03-07 08:46:12 51°27.138 2°58.666 27.1 13.2 27 20.1
2005-03-07 08:46:18 51°27.157 2°58.681 27.1 12.9 28 20.2
2005-03-07 08:46:24 51°27.174 2°58.695 27.5 12.9 28 20.5
2005-03-07 08:46:28 51°27.19 2°58.707 27.1 13.1 26 20.4
2005-03-07 08:46:33 51°27.206 2°58.721 27.3 13.1 26 20.6
2005-03-07 08:46:38 51°27.222 2°58.734 27 13.1 26 20.6
2005-03-07 08:46:44 51°27.238 2°58.748 27.1 13.1 26 20
2005-03-07 08:46:49 51°27.255 2°58.764 27.5 12.8 28 36.3
2005-03-07 08:46:53 51°27.267 2°58.775 28.6 12.5 31 54.1
2005-03-07 08:46:59 51°27.284 2°58.79 29.7 12.2 31 -999
2005-03-07 08:47:04 51°27.298 2°58.803 30.2 12.2 31 17.2
2005-03-07 08:47:09 51°27.314 2°58.815 29.1 12.5 28 18
2005-03-07 08:47:14 51°27.33 2°58.829 28.6 12.5 28 17.5
2005-03-07 08:47:18 51°27.344 2°58.839 27 12.6 27 18.6
2005-03-07 08:47:23 51°27.36 2°58.854 27 12.8 28 18.5
2005-03-07 08:47:29 51°27.378 2°58.869 27.6 12.8 28 18.5
2005-03-07 08:47:32 51°27.388 2°58.877 27.2 12.7 27 18.7
2005-03-07 08:47:39 51°27.41 2°58.896 27.5 12.7 27 18.9
2005-03-07 08:47:43 51°27.422 2°58.908 28 12.7 27 19.5
2005-03-07 08:47:48 51°27.436 2°58.925 30.4 12.8 35 20.7
2005-03-07 08:47:54 51°27.452 2°58.944 33.9 12.7 38 18.9
2005-03-07 08:47:59 51°27.465 2°58.964 37.8 12.7 38 19.6
2005-03-07 08:48:04 51°27.479 2°58.984 39.6 13.2 40 19.9
2005-03-07 08:48:09 51°27.493 2°59.003 41.8 13.5 43 20.3
2005-03-07 08:48:14 51°27.507 2°59.024 42.6 13.5 43 20.7
2005-03-07 08:48:19 51°27.521 2°59.045 43.6 13.5 43 20.8
2005-03-07 08:48:24 51°27.534 2°59.065 44.2 13.6 42 21.5
2005-03-07 08:48:28 51°27.546 2°59.084 44.4 13.5 44 21.8
2005-03-07 08:48:32 51°27.557 2°59.102 45.6 13.7 46 21.9
2005-03-07 08:48:38 51°27.571 2°59.127 47.1 13.6 47 20.5
2005-03-07 08:48:44 51°27.585 2°59.152 48.2 13.5 49 21.3
2005-03-07 08:48:48 51°27.597 2°59.175 49.1 13.5 49 19.4
2005-03-07 08:48:53 51°27.608 2°59.194 50.8 13.5 47 20.1
2005-03-07 08:48:57 51°27.618 2°59.216 49.4 13.5 47 20.2
2005-03-07 08:49:04 51°27.634 2°59.246 51.1 13.9 51 20.9
2005-03-07 08:49:08 51°27.645 2°59.267 51.2 13.7 52 21.3
2005-03-07 08:49:13 51°27.656 2°59.288 51.4 13.7 51 21.6
2005-03-07 08:49:18 51°27.668 2°59.312 52.3 13.9 52 21
2005-03-07 08:49:23 51°27.681 2°59.338 50.8 13.8 51 19.2
2005-03-07 08:49:28 51°27.692 2°59.359 51.9 13.8 51 20.1
2005-03-07 08:49:34 51°27.706 2°59.39 51.5 13.8 50 20.5
2005-03-07 08:49:38 51°27.716 2°59.409 52.7 13.7 54 20.6
2005-03-07 08:49:43 51°27.728 2°59.432 53.4 13.7 54 21.4
2005-03-07 08:49:48 51°27.74 2°59.458 53.7 13.7 53 20
2005-03-07 08:49:52 51°27.749 2°59.478 52.7 13.8 54 19.4
2005-03-07 08:49:59 51°27.765 2°59.508 53.8 13.8 54 20.4
2005-03-07 08:50:04 51°27.777 2°59.532 53.8 13.8 54 20.8
2005-03-07 08:50:08 51°27.787 2°59.554 52.4 13.8 54 20
2005-03-07 08:50:13 51°27.8 2°59.578 52.5 13.8 51 20.7
2005-03-07 08:50:19 51°27.813 2°59.604 52.4 13.8 51 21.2
2005-03-07 08:50:24 51°27.825 2°59.629 52.7 13.8 51 21.3
2005-03-07 08:50:28 51°27.836 2°59.649 51.8 13.9 51 20.8
2005-03-07 08:50:33 51°27.848 2°59.674 51.7 13.8 52 21.3
2005-03-07 08:50:39 51°27.862 2°59.701 52.2 13.8 52 19.8
2005-03-07 08:50:44 51°27.873 2°59.724 50.4 13.8 52 20.4
2005-03-07 08:50:48 51°27.884 2°59.745 51.8 13.8 52 20.8
2005-03-07 08:50:52 51°27.893 2°59.762 51.2 13.8 52 19.8
2005-03-07 08:50:58 51°27.909 2°59.791 50.9 13.8 52 20.3
2005-03-07 08:51:04 51°27.922 2°59.817 50.7 13.7 51 20.5
2005-03-07 08:51:08 51°27.932 2°59.837 51.7 13.8 52 21.1
2005-03-07 08:51:12 51°27.942 2°59.858 51.9 13.8 52 21.5
2005-03-07 08:51:17 51°27.954 2°59.882 52.4 13.6 51 20.3
2005-03-07 08:51:23 51°27.968 2°59.91 52.2 13.7 51 20.8
2005-03-07 08:51:28 51°27.978 2°59.936 51.7 13.7 51 20.9
2005-03-07 08:51:32 51°27.988 2°59.954 54.3 13.5 57 20.7
2005-03-07 08:51:36 51°27.997 2°59.975 55.3 13.8 54 20.9
2005-03-07 08:51:43 51°28.013 3°0.01 54.9 13.8 56 21.2